Time;durP1;ratioP1;P1;durP2;ratioP2;P2;SDS_P1;SDS_P2;PMS_P1;PMS_P2;Temp;Humidity;BMP_temperature;BMP_pressure;BME280_temperature;BME280_humidity;BME280_pressure;Samples;Min_cycle;Max_cycle;Signal;HPM_P1;HPM_P2
2023/06/19 00:01:12;0.00;0.00;0.62;0.00;0.00;0.62;4.33;3.30;;;33.10;21.80;;;;;;2263908;61;20964;-65
2023/06/19 00:03:56;0.00;0.00;0.62;0.00;0.00;0.62;4.13;3.73;;;33.20;21.80;;;;;;2263448;61;20388;-65
2023/06/19 00:06:41;0.00;0.00;0.62;0.00;0.00;0.62;3.63;3.33;;;33.10;21.80;;;;;;2263769;61;21334;-65
2023/06/19 00:09:26;0.00;0.00;0.62;0.00;0.00;0.62;3.77;3.40;;;33.10;21.70;;;;;;2263522;61;20376;-66
2023/06/19 00:12:11;0.00;0.00;0.62;0.00;0.00;0.62;3.60;3.30;;;33.10;21.80;;;;;;2263645;61;20408;-65
2023/06/19 00:14:56;0.00;0.00;0.62;0.00;0.00;0.62;4.00;3.70;;;33.10;21.80;;;;;;2263831;61;20365;-65
2023/06/19 00:17:41;0.00;0.00;0.62;0.00;0.00;0.62;3.40;3.10;;;33.10;21.70;;;;;;2264001;61;20365;-64
2023/06/19 00:20:26;0.00;0.00;0.62;0.00;0.00;0.62;4.23;3.93;;;33.10;21.70;;;;;;2263431;61;20468;-65
2023/06/19 00:23:13;0.00;0.00;0.62;0.00;0.00;0.62;3.67;3.37;;;33.10;21.70;;;;;;2263623;61;20405;-64
2023/06/19 00:26:00;0.00;0.00;0.62;0.00;0.00;0.62;3.67;3.37;;;33.10;21.70;;;;;;2263371;61;20810;-65
2023/06/19 00:28:47;0.00;0.00;0.62;0.00;0.00;0.62;3.70;3.40;;;33.10;21.70;;;;;;2262955;61;20372;-65
2023/06/19 00:31:32;0.00;0.00;0.62;0.00;0.00;0.62;3.67;3.37;;;33.10;21.70;;;;;;2263972;61;20361;-65
2023/06/19 00:34:17;0.00;0.00;0.62;0.00;0.00;0.62;4.20;3.83;;;33.10;21.70;;;;;;2263247;61;20949;-64
2023/06/19 00:37:02;0.00;0.00;0.62;0.00;0.00;0.62;3.80;3.50;;;33.10;22.30;;;;;;2263615;61;20449;-63
2023/06/19 00:39:47;0.00;0.00;0.62;0.00;0.00;0.62;3.30;3.00;;;33.10;21.70;;;;;;2262923;61;20450;-64
2023/06/19 00:42:32;0.00;0.00;0.62;0.00;0.00;0.62;3.83;3.53;;;33.10;21.70;;;;;;2259964;61;20388;-64
2023/06/19 00:45:18;0.00;0.00;0.62;0.00;0.00;0.62;3.80;3.50;;;33.10;21.70;;;;;;2259804;61;20416;-63
2023/06/19 00:48:04;0.00;0.00;0.62;0.00;0.00;0.62;3.50;3.20;;;33.10;21.70;;;;;;2259110;61;20860;-64
2023/06/19 00:50:52;0.00;0.00;0.62;0.00;0.00;0.62;3.60;3.30;;;33.10;21.70;;;;;;2525399;40;20467;-62
2023/06/19 00:53:38;0.00;0.00;0.62;0.00;0.00;0.62;3.80;3.50;;;33.10;21.80;;;;;;2253545;61;20479;-63
2023/06/19 00:56:22;0.00;0.00;0.62;0.00;0.00;0.62;4.17;3.87;;;33.10;21.70;;;;;;2251654;61;20418;-62
2023/06/19 00:59:15;0.00;0.00;0.62;0.00;0.00;0.62;3.53;3.23;;;33.10;22.30;;;;;;2252012;61;20438;-65
2023/06/19 01:02:04;0.00;0.00;0.62;0.00;0.00;0.62;4.27;3.80;;;33.10;21.70;;;;;;2255119;61;20385;-64
2023/06/19 01:04:49;0.00;0.00;0.62;0.00;0.00;0.62;5.17;3.40;;;33.10;21.70;;;;;;2255843;61;20901;-65
2023/06/19 01:07:44;0.00;0.00;0.62;0.00;0.00;0.62;4.10;3.80;;;33.10;21.70;;;;;;2255619;61;20371;-65
2023/06/19 01:13:44;0.00;0.00;0.62;0.00;0.00;0.62;3.80;3.50;;;33.10;21.70;;;;;;2265237;61;20401;-64
2023/06/19 01:16:31;0.00;0.00;0.62;0.00;0.00;0.62;3.70;3.40;;;33.10;21.70;;;;;;2263782;61;20539;-64
2023/06/19 01:19:20;0.00;0.00;0.62;0.00;0.00;0.62;3.70;3.40;;;33.10;21.70;;;;;;2263463;61;20384;-64
2023/06/19 01:22:07;0.00;0.00;0.62;0.00;0.00;0.62;3.60;3.30;;;33.10;21.70;;;;;;2263067;61;20362;-63
2023/06/19 01:24:51;0.00;0.00;0.62;0.00;0.00;0.62;3.83;3.40;;;33.10;21.70;;;;;;2263733;61;20364;-64
2023/06/19 01:27:37;0.00;0.00;0.62;0.00;0.00;0.62;3.83;3.53;;;33.10;21.70;;;;;;2263310;61;20934;-63
2023/06/19 01:30:23;0.00;0.00;0.62;0.00;0.00;0.62;3.70;3.40;;;33.10;21.70;;;;;;2262862;61;20784;-68
2023/06/19 01:33:16;0.00;0.00;0.62;0.00;0.00;0.62;3.90;3.60;;;33.00;21.70;;;;;;2263079;61;20392;-64
2023/06/19 01:36:03;0.00;0.00;0.62;0.00;0.00;0.62;3.53;3.23;;;33.00;21.70;;;;;;2264602;61;20544;-65
2023/06/19 01:38:57;0.00;0.00;0.62;0.00;0.00;0.62;3.90;3.60;;;33.00;21.60;;;;;;2287175;55;20356;31
2023/06/19 01:41:42;0.00;0.00;0.62;0.00;0.00;0.62;3.87;3.57;;;33.00;21.70;;;;;;2258568;61;20375;-63
2023/06/19 01:44:29;0.00;0.00;0.62;0.00;0.00;0.62;3.50;3.20;;;33.00;21.70;;;;;;2256561;61;20414;-65
2023/06/19 01:47:19;0.00;0.00;0.62;0.00;0.00;0.62;3.50;3.20;;;33.00;21.70;;;;;;2256154;61;20439;-65
2023/06/19 01:50:05;0.00;0.00;0.62;0.00;0.00;0.62;3.90;3.50;;;33.00;21.60;;;;;;2258434;61;20378;-64
2023/06/19 01:52:51;0.00;0.00;0.62;0.00;0.00;0.62;4.07;3.77;;;33.00;21.60;;;;;;2259891;61;20365;-65
2023/06/19 01:55:38;0.00;0.00;0.62;0.00;0.00;0.62;4.03;3.73;;;33.00;21.60;;;;;;2260239;61;20400;-65
2023/06/19 01:58:22;0.00;0.00;0.62;0.00;0.00;0.62;3.80;3.50;;;33.00;21.60;;;;;;2259378;61;20409;-63
2023/06/19 02:01:08;0.00;0.00;0.62;0.00;0.00;0.62;3.53;3.23;;;33.00;21.70;;;;;;2259792;61;20413;-64
2023/06/19 02:03:53;0.00;0.00;0.62;0.00;0.00;0.62;3.83;3.53;;;33.00;21.70;;;;;;2259703;61;20778;-65
2023/06/19 02:06:37;0.00;0.00;0.62;0.00;0.00;0.62;3.70;3.40;;;33.00;21.60;;;;;;2260120;61;20444;-65
2023/06/19 02:09:22;0.00;0.00;0.62;0.00;0.00;0.62;3.80;3.50;;;33.00;21.70;;;;;;2258965;61;20385;-65
2023/06/19 02:12:09;0.00;0.00;0.62;0.00;0.00;0.62;4.20;3.90;;;33.00;21.60;;;;;;2259328;61;20409;-64
2023/06/19 02:14:54;0.00;0.00;0.62;0.00;0.00;0.62;4.03;3.70;;;33.00;21.60;;;;;;2260041;61;20378;-65
2023/06/19 02:17:39;0.00;0.00;0.62;0.00;0.00;0.62;3.97;3.67;;;33.00;21.60;;;;;;2262362;61;20415;-65
2023/06/19 02:23:14;0.00;0.00;0.62;0.00;0.00;0.62;4.10;3.70;;;33.00;21.60;;;;;;2265953;61;20393;-63
2023/06/19 02:25:58;0.00;0.00;0.62;0.00;0.00;0.62;4.10;3.70;;;33.00;21.60;;;;;;2263775;61;20449;-65
2023/06/19 02:28:44;0.00;0.00;0.62;0.00;0.00;0.62;3.87;3.57;;;33.00;21.70;;;;;;2263390;61;20367;-65
2023/06/19 02:31:29;0.00;0.00;0.62;0.00;0.00;0.62;3.43;3.13;;;33.00;21.60;;;;;;2263334;61;20361;-64
2023/06/19 02:34:16;0.00;0.00;0.62;0.00;0.00;0.62;4.70;3.20;;;33.00;21.60;;;;;;2264171;61;20392;-65
2023/06/19 02:37:01;0.00;0.00;0.62;0.00;0.00;0.62;3.63;3.33;;;33.00;21.60;;;;;;2264901;61;20453;-62
2023/06/19 02:39:45;0.00;0.00;0.62;0.00;0.00;0.62;3.80;3.50;;;32.90;21.60;;;;;;2263320;61;20457;-62
2023/06/19 02:42:30;0.00;0.00;0.62;0.00;0.00;0.62;3.97;3.67;;;32.90;21.60;;;;;;2264459;61;20361;-63
2023/06/19 02:45:16;0.00;0.00;0.62;0.00;0.00;0.62;4.03;3.63;;;32.90;21.60;;;;;;2264214;61;20376;-66
2023/06/19 02:48:01;0.00;0.00;0.62;0.00;0.00;0.62;3.50;3.20;;;32.90;21.60;;;;;;2263699;61;20411;-65
2023/06/19 02:50:46;0.00;0.00;0.62;0.00;0.00;0.62;3.90;3.60;;;32.90;21.60;;;;;;2263787;61;20409;-65
2023/06/19 02:53:31;0.00;0.00;0.62;0.00;0.00;0.62;4.10;3.80;;;32.90;21.60;;;;;;2263636;61;20444;-65
2023/06/19 02:56:15;0.00;0.00;0.62;0.00;0.00;0.62;3.70;3.40;;;32.90;21.60;;;;;;2264021;61;20383;-64
2023/06/19 02:59:00;0.00;0.00;0.62;0.00;0.00;0.62;3.47;3.17;;;32.90;21.60;;;;;;2263368;61;20614;-65
2023/06/19 03:01:47;0.00;0.00;0.62;0.00;0.00;0.62;3.67;3.37;;;32.90;21.60;;;;;;2263606;61;20447;-65
2023/06/19 03:04:32;0.00;0.00;0.62;0.00;0.00;0.62;4.40;4.00;;;32.90;21.60;;;;;;2263829;61;20388;-64
2023/06/19 03:07:17;0.00;0.00;0.62;0.00;0.00;0.62;3.77;3.47;;;32.90;21.60;;;;;;2263219;61;20373;-65
2023/06/19 03:10:01;0.00;0.00;0.62;0.00;0.00;0.62;3.40;3.10;;;32.90;21.60;;;;;;2263270;61;20423;-64
2023/06/19 03:12:48;0.00;0.00;0.62;0.00;0.00;0.62;3.40;3.10;;;32.90;21.60;;;;;;2263493;61;20365;-65
2023/06/19 03:15:33;0.00;0.00;0.62;0.00;0.00;0.62;3.70;3.40;;;32.90;21.60;;;;;;2260481;61;20361;-64
2023/06/19 03:18:19;0.00;0.00;0.62;0.00;0.00;0.62;3.47;3.17;;;32.90;21.60;;;;;;2263662;61;20401;-65
2023/06/19 03:21:04;0.00;0.00;0.62;0.00;0.00;0.62;3.70;3.40;;;32.90;21.60;;;;;;2263542;61;20364;-65
2023/06/19 03:23:49;0.00;0.00;0.62;0.00;0.00;0.62;4.00;3.57;;;32.90;21.60;;;;;;2263018;61;20385;-65
2023/06/19 03:26:34;0.00;0.00;0.62;0.00;0.00;0.62;4.17;3.80;;;32.90;21.60;;;;;;2263724;61;20361;-66
2023/06/19 03:29:20;0.00;0.00;0.62;0.00;0.00;0.62;3.00;2.80;;;32.90;21.60;;;;;;2262752;61;20464;-65
2023/06/19 03:32:14;0.00;0.00;0.62;0.00;0.00;0.62;3.83;3.40;;;32.90;21.60;;;;;;2260503;61;20357;-64
2023/06/19 03:35:01;0.00;0.00;0.62;0.00;0.00;0.62;3.83;3.53;;;32.90;21.60;;;;;;2263706;61;20373;-65
2023/06/19 03:37:46;0.00;0.00;0.62;0.00;0.00;0.62;4.27;3.93;;;32.90;21.60;;;;;;2263434;61;20368;-64
2023/06/19 03:40:35;0.00;0.00;0.62;0.00;0.00;0.62;4.40;4.00;;;32.90;21.60;;;;;;2449862;40;21543;31
2023/06/19 03:43:26;0.00;0.00;0.62;0.00;0.00;0.62;3.57;3.27;;;32.90;21.60;;;;;;2255405;61;20803;-65
2023/06/19 03:46:11;0.00;0.00;0.62;0.00;0.00;0.62;3.70;3.40;;;32.80;22.10;;;;;;2251373;61;20418;-64
2023/06/19 03:48:56;0.00;0.00;0.62;0.00;0.00;0.62;3.70;3.40;;;32.80;21.50;;;;;;2251334;61;20378;-65
2023/06/19 03:51:42;0.00;0.00;0.62;0.00;0.00;0.62;4.40;4.00;;;32.90;21.60;;;;;;2256067;61;20767;-64
2023/06/19 03:54:26;0.00;0.00;0.62;0.00;0.00;0.62;3.87;3.50;;;32.80;21.50;;;;;;2255373;61;20355;-65
2023/06/19 03:57:11;0.00;0.00;0.62;0.00;0.00;0.62;3.73;3.43;;;32.80;21.50;;;;;;2254978;61;20451;-64
2023/06/19 03:59:56;0.00;0.00;0.62;0.00;0.00;0.62;4.10;3.80;;;32.80;21.50;;;;;;2255447;61;20456;-64
2023/06/19 04:02:41;0.00;0.00;0.62;0.00;0.00;0.62;3.63;3.33;;;32.80;21.50;;;;;;2255163;61;20409;-64
2023/06/19 04:05:26;0.00;0.00;0.62;0.00;0.00;0.62;3.90;3.60;;;32.80;21.50;;;;;;2255653;61;20435;-64
2023/06/19 04:08:13;0.00;0.00;0.62;0.00;0.00;0.62;3.60;3.30;;;32.80;21.50;;;;;;2255585;61;20367;-65
2023/06/19 04:11:01;0.00;0.00;0.62;0.00;0.00;0.62;4.07;3.67;;;32.80;21.50;;;;;;2255930;61;20426;-64
2023/06/19 04:13:46;0.00;0.00;0.62;0.00;0.00;0.62;4.23;3.10;;;32.80;22.10;;;;;;2256114;61;20383;-64
2023/06/19 04:16:31;0.00;0.00;0.62;0.00;0.00;0.62;4.17;3.77;;;32.80;21.50;;;;;;2255133;61;20362;-63
2023/06/19 04:19:16;0.00;0.00;0.62;0.00;0.00;0.62;4.47;4.07;;;32.80;21.50;;;;;;2257182;61;20382;-64
2023/06/19 04:22:00;0.00;0.00;0.62;0.00;0.00;0.62;4.33;3.87;;;32.80;21.50;;;;;;2254894;61;20772;-64
2023/06/19 04:24:47;0.00;0.00;0.62;0.00;0.00;0.62;3.93;3.63;;;32.80;21.50;;;;;;2255681;61;20385;-63
2023/06/19 04:27:31;0.00;0.00;0.62;0.00;0.00;0.62;4.23;3.83;;;32.80;21.50;;;;;;2255203;61;20394;-63
2023/06/19 04:30:16;0.00;0.00;0.62;0.00;0.00;0.62;4.43;4.03;;;32.80;21.60;;;;;;2255138;61;20426;-65
2023/06/19 04:33:01;0.00;0.00;0.62;0.00;0.00;0.62;4.37;4.00;;;32.80;21.50;;;;;;2255825;61;20354;-64
2023/06/19 04:35:45;0.00;0.00;0.62;0.00;0.00;0.62;4.10;3.70;;;32.80;21.50;;;;;;2255883;61;20363;-64
2023/06/19 04:38:30;0.00;0.00;0.62;0.00;0.00;0.62;4.13;3.77;;;32.80;21.50;;;;;;2255337;61;20366;-64
2023/06/19 04:41:16;0.00;0.00;0.62;0.00;0.00;0.62;3.80;3.50;;;32.80;21.60;;;;;;2255754;61;20425;-63
2023/06/19 04:44:03;0.00;0.00;0.62;0.00;0.00;0.62;4.30;3.90;;;32.80;21.50;;;;;;2254948;61;20382;-65
2023/06/19 04:46:48;0.00;0.00;0.62;0.00;0.00;0.62;3.90;3.60;;;32.80;21.50;;;;;;2255401;61;20371;-64
2023/06/19 04:49:33;0.00;0.00;0.62;0.00;0.00;0.62;3.97;3.67;;;32.80;21.60;;;;;;2255325;61;20406;-64
2023/06/19 04:52:18;0.00;0.00;0.62;0.00;0.00;0.62;3.97;3.67;;;32.80;21.50;;;;;;2255537;61;20379;-64
2023/06/19 04:55:04;0.00;0.00;0.62;0.00;0.00;0.62;3.77;3.47;;;32.80;21.60;;;;;;2255475;61;20363;-66
2023/06/19 04:57:51;0.00;0.00;0.62;0.00;0.00;0.62;4.07;3.77;;;32.80;21.60;;;;;;2255970;61;20535;-64
2023/06/19 05:00:36;0.00;0.00;0.62;0.00;0.00;0.62;3.70;3.40;;;32.80;21.60;;;;;;2255012;61;20386;-65
2023/06/19 05:03:21;0.00;0.00;0.62;0.00;0.00;0.62;4.23;3.83;;;32.70;21.60;;;;;;2255358;61;20487;-64
2023/06/19 05:06:06;0.00;0.00;0.62;0.00;0.00;0.62;3.90;3.50;;;32.70;21.60;;;;;;2255822;61;20377;-64
2023/06/19 05:08:52;0.00;0.00;0.62;0.00;0.00;0.62;3.67;3.37;;;32.70;21.60;;;;;;2255089;61;21651;-64
2023/06/19 05:11:36;0.00;0.00;0.62;0.00;0.00;0.62;3.70;3.40;;;32.70;21.60;;;;;;2255598;61;20362;-65
2023/06/19 05:14:22;0.00;0.00;0.62;0.00;0.00;0.62;3.93;3.63;;;32.70;21.60;;;;;;2256127;61;20767;-63
2023/06/19 05:17:09;0.00;0.00;0.62;0.00;0.00;0.62;4.17;3.77;;;32.70;21.60;;;;;;2256229;61;20366;-65
2023/06/19 05:19:54;0.00;0.00;0.62;0.00;0.00;0.62;4.80;4.40;;;32.70;21.60;;;;;;2255682;61;20471;-65
2023/06/19 05:22:39;0.00;0.00;0.62;0.00;0.00;0.62;4.37;3.97;;;32.70;21.60;;;;;;2255880;61;20446;-65
2023/06/19 05:25:23;0.00;0.00;0.62;0.00;0.00;0.62;4.00;3.70;;;32.70;21.60;;;;;;2255924;61;20421;-65
2023/06/19 05:28:08;0.00;0.00;0.62;0.00;0.00;0.62;3.80;3.50;;;32.70;21.60;;;;;;2256087;61;20439;-63
2023/06/19 05:30:54;0.00;0.00;0.62;0.00;0.00;0.62;4.87;4.37;;;32.70;21.60;;;;;;2255771;61;20386;-63
2023/06/19 05:33:38;0.00;0.00;0.62;0.00;0.00;0.62;3.87;3.57;;;32.70;21.60;;;;;;2256383;61;20897;-64
2023/06/19 05:36:23;0.00;0.00;0.62;0.00;0.00;0.62;3.80;3.47;;;32.70;21.60;;;;;;2255972;61;20367;-64
2023/06/19 05:39:09;0.00;0.00;0.62;0.00;0.00;0.62;4.70;3.77;;;32.70;21.60;;;;;;2255737;61;20382;-63
2023/06/19 05:41:54;0.00;0.00;0.62;0.00;0.00;0.62;4.23;3.83;;;32.70;21.70;;;;;;2256250;61;20419;-64
2023/06/19 05:44:40;0.00;0.00;0.62;0.00;0.00;0.62;4.03;3.73;;;32.70;21.70;;;;;;2255772;61;20422;-64
2023/06/19 05:47:26;0.00;0.00;0.62;0.00;0.00;0.62;4.20;3.80;;;32.60;21.70;;;;;;2256225;61;20518;-63
2023/06/19 05:50:10;0.00;0.00;0.62;0.00;0.00;0.62;4.43;4.03;;;32.60;21.60;;;;;;2255518;61;20437;-63
2023/06/19 05:52:55;0.00;0.00;0.62;0.00;0.00;0.62;4.00;3.70;;;32.60;21.70;;;;;;2256188;61;20409;-64
2023/06/19 05:55:40;0.00;0.00;0.62;0.00;0.00;0.62;4.20;3.87;;;32.60;21.70;;;;;;2256365;61;20803;-64
2023/06/19 05:58:25;0.00;0.00;0.62;0.00;0.00;0.62;4.20;3.90;;;32.60;21.70;;;;;;2255505;61;20401;-63
2023/06/19 06:01:10;0.00;0.00;0.62;0.00;0.00;0.62;4.70;4.30;;;32.60;21.70;;;;;;2255470;61;20381;-64
2023/06/19 06:03:56;0.00;0.00;0.62;0.00;0.00;0.62;4.00;3.27;;;32.60;21.70;;;;;;2255761;61;20430;-64
2023/06/19 06:06:41;0.00;0.00;0.62;0.00;0.00;0.62;3.87;3.57;;;32.60;21.70;;;;;;2256038;61;20370;-63
2023/06/19 06:09:26;0.00;0.00;0.62;0.00;0.00;0.62;4.40;4.00;;;32.60;21.70;;;;;;2255564;61;20410;-64
2023/06/19 06:12:11;0.00;0.00;0.62;0.00;0.00;0.62;4.70;4.30;;;32.60;21.70;;;;;;2256145;61;20358;-63
2023/06/19 06:14:56;0.00;0.00;0.62;0.00;0.00;0.62;3.87;3.57;;;32.60;22.20;;;;;;2255959;61;20663;-63
2023/06/19 06:17:41;0.00;0.00;0.62;0.00;0.00;0.62;4.20;3.80;;;32.60;21.70;;;;;;2255657;61;20430;-64
2023/06/19 06:20:27;0.00;0.00;0.62;0.00;0.00;0.62;4.63;4.23;;;32.60;21.80;;;;;;2255449;61;20378;-64
2023/06/19 06:23:12;0.00;0.00;0.62;0.00;0.00;0.62;4.67;4.27;;;32.60;21.70;;;;;;2256529;61;20378;-64
2023/06/19 06:26:01;0.00;0.00;0.62;0.00;0.00;0.62;4.00;3.70;;;32.60;21.80;;;;;;2255920;61;20366;-64
2023/06/19 06:28:49;0.00;0.00;0.62;0.00;0.00;0.62;4.20;3.80;;;32.60;21.80;;;;;;2295675;47;20450;31
2023/06/19 06:31:34;0.00;0.00;0.62;0.00;0.00;0.62;4.57;4.17;;;32.60;21.80;;;;;;2257897;61;20429;-64
2023/06/19 06:34:19;0.00;0.00;0.62;0.00;0.00;0.62;4.47;4.07;;;32.60;21.80;;;;;;2256179;61;20358;-64
2023/06/19 06:37:05;0.00;0.00;0.62;0.00;0.00;0.62;3.97;3.67;;;32.60;21.80;;;;;;2255901;61;20438;-64
2023/06/19 06:39:50;0.00;0.00;0.62;0.00;0.00;0.62;4.17;3.80;;;32.60;21.80;;;;;;2257968;61;20470;-64
2023/06/19 06:42:35;0.00;0.00;0.62;0.00;0.00;0.62;4.53;4.13;;;32.60;21.80;;;;;;2260137;61;20787;-64
2023/06/19 06:45:20;0.00;0.00;0.62;0.00;0.00;0.62;4.67;4.27;;;32.60;21.80;;;;;;2260263;61;20362;-64
2023/06/19 06:48:06;0.00;0.00;0.62;0.00;0.00;0.62;6.50;4.47;;;32.60;21.80;;;;;;2259933;61;20423;-63
2023/06/19 06:51:24;0.00;0.00;0.62;0.00;0.00;0.62;4.43;4.03;;;32.60;21.80;;;;;;2450218;39;20420;-64
2023/06/19 06:54:10;0.00;0.00;0.62;0.00;0.00;0.62;4.30;3.90;;;32.60;21.80;;;;;;2269481;61;20391;-65
2023/06/19 06:56:58;0.00;0.00;0.62;0.00;0.00;0.62;4.50;4.10;;;32.60;22.00;;;;;;2268545;61;20410;-64
2023/06/19 06:59:42;0.00;0.00;0.62;0.00;0.00;0.62;4.27;3.87;;;32.60;21.80;;;;;;2267005;61;20838;-64
2023/06/19 07:02:27;0.00;0.00;0.62;0.00;0.00;0.62;4.30;3.90;;;32.60;21.80;;;;;;2268289;61;20367;-63
2023/06/19 07:05:11;0.00;0.00;0.62;0.00;0.00;0.62;4.33;3.97;;;32.60;22.40;;;;;;2267891;61;20395;-63
2023/06/19 07:07:56;0.00;0.00;0.62;0.00;0.00;0.62;4.60;4.13;;;32.60;21.80;;;;;;2268020;61;20379;-63
2023/06/19 07:10:42;0.00;0.00;0.62;0.00;0.00;0.62;4.70;4.30;;;32.60;21.80;;;;;;2268346;61;20391;-64
2023/06/19 07:13:27;0.00;0.00;0.62;0.00;0.00;0.62;3.97;3.63;;;32.60;21.90;;;;;;2267963;61;20392;-64
2023/06/19 07:16:12;0.00;0.00;0.62;0.00;0.00;0.62;4.93;4.53;;;32.60;21.90;;;;;;2267910;61;20823;-64
2023/06/19 07:18:57;0.00;0.00;0.62;0.00;0.00;0.62;4.53;4.13;;;32.60;21.90;;;;;;2268021;61;20376;-64
2023/06/19 07:21:43;0.00;0.00;0.62;0.00;0.00;0.62;4.37;3.70;;;32.60;21.90;;;;;;2264688;61;20893;-64
2023/06/19 07:24:28;0.00;0.00;0.62;0.00;0.00;0.62;4.90;4.50;;;32.60;21.90;;;;;;2267987;61;20402;-64
2023/06/19 07:27:14;0.00;0.00;0.62;0.00;0.00;0.62;4.27;3.87;;;32.60;21.90;;;;;;2267425;61;20368;-63
2023/06/19 07:29:59;0.00;0.00;0.62;0.00;0.00;0.62;4.37;4.07;;;32.60;21.90;;;;;;2267775;61;20406;-63
2023/06/19 07:32:44;0.00;0.00;0.62;0.00;0.00;0.62;4.53;4.13;;;32.60;21.90;;;;;;2268099;61;20448;-63
2023/06/19 07:35:29;0.00;0.00;0.62;0.00;0.00;0.62;4.93;4.53;;;32.60;21.90;;;;;;2267926;61;20966;-64
2023/06/19 07:38:13;0.00;0.00;0.62;0.00;0.00;0.62;3.97;3.67;;;32.60;21.90;;;;;;2268038;61;20418;-64
2023/06/19 07:40:58;0.00;0.00;0.62;0.00;0.00;0.62;4.30;4.00;;;32.60;21.90;;;;;;2268146;61;20422;-64
2023/06/19 07:43:44;0.00;0.00;0.62;0.00;0.00;0.62;4.67;4.27;;;32.60;21.90;;;;;;2267889;61;20387;-64
2023/06/19 07:46:29;0.00;0.00;0.62;0.00;0.00;0.62;4.33;4.03;;;32.60;21.90;;;;;;2268068;61;20414;-64
2023/06/19 07:49:14;0.00;0.00;0.62;0.00;0.00;0.62;4.30;4.00;;;32.60;21.90;;;;;;2267901;61;20936;-63
2023/06/19 07:51:58;0.00;0.00;0.62;0.00;0.00;0.62;4.93;4.53;;;32.60;21.90;;;;;;2267814;61;20391;-64
2023/06/19 07:54:53;0.00;0.00;0.62;0.00;0.00;0.62;4.40;4.00;;;32.60;22.00;;;;;;2267523;61;20356;-63
2023/06/19 07:57:38;0.00;0.00;0.62;0.00;0.00;0.62;4.67;4.27;;;32.60;22.00;;;;;;2267905;61;20382;-64
2023/06/19 08:00:24;0.00;0.00;0.62;0.00;0.00;0.62;3.80;3.50;;;32.60;22.00;;;;;;2267565;61;20424;-63
2023/06/19 08:03:09;0.00;0.00;0.62;0.00;0.00;0.62;4.73;4.33;;;32.60;22.00;;;;;;2267768;61;20376;-64
2023/06/19 08:05:54;0.00;0.00;0.62;0.00;0.00;0.62;3.90;3.60;;;32.60;22.00;;;;;;2267882;61;20368;-63
2023/06/19 08:08:38;0.00;0.00;0.62;0.00;0.00;0.62;4.43;4.03;;;32.60;22.00;;;;;;2267429;61;20380;-64
2023/06/19 08:11:23;0.00;0.00;0.62;0.00;0.00;0.62;4.70;4.30;;;32.60;22.00;;;;;;2268311;61;20383;-64
2023/06/19 08:14:08;0.00;0.00;0.62;0.00;0.00;0.62;4.93;4.53;;;32.60;22.00;;;;;;2267841;61;20402;-64
2023/06/19 08:16:54;0.00;0.00;0.62;0.00;0.00;0.62;4.00;3.67;;;32.60;22.00;;;;;;2268041;61;20436;-63
2023/06/19 08:19:39;0.00;0.00;0.62;0.00;0.00;0.62;4.27;3.87;;;32.60;22.00;;;;;;2295413;47;20408;-64
2023/06/19 08:22:24;0.00;0.00;0.62;0.00;0.00;0.62;4.03;3.73;;;32.60;22.10;;;;;;2264043;61;20916;-63
2023/06/19 08:25:10;0.00;0.00;0.62;0.00;0.00;0.62;4.40;4.00;;;32.60;22.00;;;;;;2263534;61;20381;-64
2023/06/19 08:27:55;0.00;0.00;0.62;0.00;0.00;0.62;4.27;3.93;;;32.60;22.00;;;;;;2263979;61;20369;-64
2023/06/19 08:30:39;0.00;0.00;0.62;0.00;0.00;0.62;4.13;3.83;;;32.60;22.00;;;;;;2263329;61;20385;-63
2023/06/19 08:33:26;0.00;0.00;0.62;0.00;0.00;0.62;4.43;4.00;;;32.60;22.10;;;;;;2264063;61;20357;-64
2023/06/19 08:36:11;0.00;0.00;0.62;0.00;0.00;0.62;5.00;4.50;;;32.60;22.10;;;;;;2263138;61;20372;-64
2023/06/19 08:38:55;0.00;0.00;0.62;0.00;0.00;0.62;4.40;4.00;;;32.60;22.10;;;;;;2262614;61;20405;-63
2023/06/19 08:41:41;0.00;0.00;0.62;0.00;0.00;0.62;4.23;3.90;;;32.60;22.10;;;;;;2263887;61;20396;-63
2023/06/19 08:44:26;0.00;0.00;0.62;0.00;0.00;0.62;3.73;3.43;;;32.70;22.20;;;;;;2263816;61;20380;-64
2023/06/19 08:47:11;0.00;0.00;0.62;0.00;0.00;0.62;4.00;3.60;;;32.60;22.10;;;;;;2263911;61;20435;-63
2023/06/19 08:49:58;0.00;0.00;0.62;0.00;0.00;0.62;4.17;3.77;;;32.60;22.10;;;;;;2262781;61;20423;-64
2023/06/19 08:52:42;0.00;0.00;0.62;0.00;0.00;0.62;4.20;3.90;;;32.70;22.20;;;;;;2263363;61;20905;-64
2023/06/19 08:55:28;0.00;0.00;0.62;0.00;0.00;0.62;4.47;4.07;;;32.70;22.20;;;;;;2263649;61;20574;-64
2023/06/19 08:58:21;0.00;0.00;0.62;0.00;0.00;0.62;4.23;3.83;;;32.70;22.20;;;;;;2263746;61;20365;-63
2023/06/19 09:01:06;0.00;0.00;0.62;0.00;0.00;0.62;3.67;3.33;;;32.70;22.20;;;;;;2264171;61;20357;-64
2023/06/19 09:03:52;0.00;0.00;0.62;0.00;0.00;0.62;4.00;3.70;;;32.70;22.20;;;;;;2263719;61;20372;-64
2023/06/19 09:06:49;0.00;0.00;0.62;0.00;0.00;0.62;4.17;3.87;;;32.70;22.20;;;;;;2263905;61;20405;-64
2023/06/19 09:09:35;0.00;0.00;0.62;0.00;0.00;0.62;3.80;3.50;;;32.70;22.30;;;;;;2263333;61;20389;-63
2023/06/19 09:12:20;0.00;0.00;0.62;0.00;0.00;0.62;4.03;3.73;;;32.70;22.30;;;;;;2263826;61;20360;-63
2023/06/19 09:15:15;0.00;0.00;0.62;0.00;0.00;0.62;3.43;3.13;;;32.70;22.30;;;;;;2263243;61;20349;-63
2023/06/19 09:18:02;0.00;0.00;0.62;0.00;0.00;0.62;4.53;4.13;;;32.70;22.30;;;;;;2263260;61;20445;-66
2023/06/19 09:20:47;0.00;0.00;0.62;0.00;0.00;0.62;4.47;4.07;;;32.70;22.30;;;;;;2263641;61;20473;-64
2023/06/19 09:23:35;0.00;0.00;0.62;0.00;0.00;0.62;3.97;3.67;;;32.70;22.30;;;;;;2263110;61;20431;-63
2023/06/19 09:26:23;0.00;0.00;0.62;0.00;0.00;0.62;3.80;3.50;;;32.70;22.30;;;;;;2262953;61;20456;-64
2023/06/19 09:29:12;0.00;0.00;0.62;0.00;0.00;0.62;3.77;3.47;;;32.80;22.40;;;;;;2263115;61;20403;-64
2023/06/19 09:31:57;0.00;0.00;0.62;0.00;0.00;0.62;3.23;2.93;;;32.80;22.40;;;;;;2263834;61;20392;-64
2023/06/19 09:34:42;0.00;0.00;0.62;0.00;0.00;0.62;3.50;3.20;;;32.80;22.40;;;;;;2263489;61;20392;-63
2023/06/19 09:37:29;0.00;0.00;0.62;0.00;0.00;0.62;3.70;3.40;;;32.80;22.40;;;;;;2263489;61;20373;-63
2023/06/19 09:40:16;0.00;0.00;0.62;0.00;0.00;0.62;3.73;3.43;;;32.80;22.40;;;;;;2263125;61;20393;-64
2023/06/19 09:43:02;0.00;0.00;0.62;0.00;0.00;0.62;3.17;2.93;;;32.80;22.40;;;;;;2263724;61;20369;-64
2023/06/19 09:45:52;0.00;0.00;0.62;0.00;0.00;0.62;4.07;3.77;;;32.80;22.40;;;;;;2260661;61;20368;-64
2023/06/19 09:48:45;0.00;0.00;0.62;0.00;0.00;0.62;3.63;3.33;;;32.80;22.40;;;;;;2262909;61;20858;-63
2023/06/19 09:51:36;0.00;0.00;0.62;0.00;0.00;0.62;3.90;3.50;;;32.80;22.50;;;;;;2263599;61;20410;-63
2023/06/19 09:54:22;0.00;0.00;0.62;0.00;0.00;0.62;3.07;2.87;;;32.80;22.50;;;;;;2263466;61;20381;-64
2023/06/19 09:57:10;0.00;0.00;0.62;0.00;0.00;0.62;3.70;3.40;;;32.80;22.50;;;;;;2264396;61;20415;-63
2023/06/19 09:59:58;0.00;0.00;0.62;0.00;0.00;0.62;3.10;2.80;;;32.80;22.50;;;;;;2263744;61;20393;-63
2023/06/19 10:02:46;0.00;0.00;0.62;0.00;0.00;0.62;3.90;3.60;;;32.80;22.50;;;;;;2263729;61;20408;-64
2023/06/19 10:05:31;0.00;0.00;0.62;0.00;0.00;0.62;3.63;3.33;;;32.80;22.50;;;;;;2264307;61;20389;-64
2023/06/19 10:08:29;0.00;0.00;0.62;0.00;0.00;0.62;3.20;3.00;;;32.80;22.50;;;;;;2263903;61;20400;-64
2023/06/19 10:11:14;0.00;0.00;0.62;0.00;0.00;0.62;3.20;2.90;;;32.80;22.50;;;;;;2263583;61;20902;-64
2023/06/19 10:14:07;0.00;0.00;0.62;0.00;0.00;0.62;3.40;3.10;;;32.80;22.50;;;;;;2263773;61;20399;-63
2023/06/19 10:16:52;0.00;0.00;0.62;0.00;0.00;0.62;3.57;3.27;;;32.80;22.60;;;;;;2264192;61;20362;-63
2023/06/19 10:19:37;0.00;0.00;0.62;0.00;0.00;0.62;3.60;3.30;;;32.90;22.80;;;;;;2263175;61;20384;-64
2023/06/19 10:22:21;0.00;0.00;0.62;0.00;0.00;0.62;3.10;2.90;;;32.90;22.60;;;;;;2264155;61;20361;-63
2023/06/19 10:25:07;0.00;0.00;0.62;0.00;0.00;0.62;3.87;3.57;;;32.90;22.60;;;;;;2263695;61;20514;-64
2023/06/19 10:27:52;0.00;0.00;0.62;0.00;0.00;0.62;3.40;3.10;;;32.90;22.60;;;;;;2264141;61;20388;-64
2023/06/19 10:30:38;0.00;0.00;0.62;0.00;0.00;0.62;2.93;2.73;;;32.90;22.70;;;;;;2263811;61;20457;-64
2023/06/19 10:33:24;0.00;0.00;0.62;0.00;0.00;0.62;2.93;2.70;;;32.90;22.70;;;;;;2263534;61;20407;-64
2023/06/19 10:36:17;0.00;0.00;0.62;0.00;0.00;0.62;3.40;3.10;;;32.90;22.70;;;;;;2263515;61;20384;-64
2023/06/19 10:39:02;0.00;0.00;0.62;0.00;0.00;0.62;2.90;2.70;;;32.90;22.70;;;;;;2263115;61;20420;-65
2023/06/19 10:41:47;0.00;0.00;0.62;0.00;0.00;0.62;3.40;3.10;;;32.90;22.70;;;;;;2264237;61;20381;-64
2023/06/19 10:44:31;0.00;0.00;0.62;0.00;0.00;0.62;2.80;2.60;;;32.90;22.70;;;;;;2263759;61;20397;-64
2023/06/19 10:47:17;0.00;0.00;0.62;0.00;0.00;0.62;3.20;2.90;;;32.90;22.70;;;;;;2263797;61;20364;-64
2023/06/19 10:50:03;0.00;0.00;0.62;0.00;0.00;0.62;2.73;2.53;;;33.00;22.80;;;;;;2262457;61;20381;-64
2023/06/19 10:52:48;0.00;0.00;0.62;0.00;0.00;0.62;2.60;2.40;;;33.00;22.80;;;;;;2264257;61;20365;-64
2023/06/19 10:55:33;0.00;0.00;0.62;0.00;0.00;0.62;3.23;2.93;;;33.00;22.80;;;;;;2264068;61;20424;-64
2023/06/19 10:58:19;0.00;0.00;0.62;0.00;0.00;0.62;3.07;2.77;;;33.00;22.80;;;;;;2263201;61;20361;-64
2023/06/19 11:01:03;0.00;0.00;0.62;0.00;0.00;0.62;2.73;2.53;;;33.00;22.80;;;;;;2263970;61;20664;-64